SPJL/JUL METAR and TAF weather

Enter ICAO airport designator
Station Type Date Time Source
SPJL METAR 2022/01/24 21:00 UTC NOAA

SPJL 242100Z 02007KT 9999 SCT020 BKN080 10/06 Q1032 RMK PP000


Station Type Date Time Source
SPJL Decoded METAR 2022/01/24 21:00 UTC NOAA

Juliaca, Peru (SPJL) 15-29S 070-09W 3827M
Jan 24, 2022 - 04:00 PM EST / 2022.01.24 2100 UTC
Wind: from the NNE (020 degrees) at 8 MPH (7 KT):0
Visibility: greater than 7 mile(s):0
Sky conditions: mostly cloudy
Temperature: 50 F (10 C)
Dew Point: 42 F (6 C)
Relative Humidity: 76%
Pressure (altimeter): 30.47 in. Hg (1032 hPa)
ob: SPJL 242100Z 02007KT 9999 SCT020 BKN080 10/06 Q1032 RMK PP000
cycle: 21

Station Type Date Time Source
SPJL TAF 2022/01/24 18:33 UTC NOAA

TAF SPJL 241700Z 2418/2518 05006KT 9999 BKN020 BKN070 TX16/2419Z TN06/2511Z
TEMPO 2422/2502 10010KT RA
FM250200 34005KT 9999 BKN018
FM251300 VRB03KT 9999 SCT020 BKN080

Example: see airport list